Aragon, GA

8:42 AM EDT on November 01, 2014 (GMT -0400)
Lindale | Change Station
CLOSE
Current Station
Personal Weather Station
Location: Lindale, GA
Elevation: 780 ft
Nearby Weather Stations

Elev 780 ft 34.16 °N, 85.18 °W | Updated 2 seconds ago

Overcast
Overcast
38.9 °F
Feels Like 36 °F
N
4.0
Wind Variable Wind from NW
Gusts 7.0 mph

Today
High -- | Low -- °F
--% Chance of Precip.
Yesterday
High -- | Low -- °F
Precip. -- in
7:59 AM 6:47 PM
Waxing Gibbous, 66% visible
Pressure 30.02 in
Visibility 10.0 miles
Clouds Mostly Cloudy 2900 ft
Overcast 3500 ft
Windchill 36 °F
Dew Point 31 °F
Humidity 72%
Rainfall 0.00 in
Snow Depth Not available.
UV 0 out of 12
Pollen 2.30 out of 12
Air Quality Not available.
Flu Activity Not available.
METAR KPUJ 011235Z AUTO 33017G29KT 10SM BKN029 OVC035 03/00 A3002 RMK AO2

More Conditions Fewer Conditions

Pressure 30.02 in
Visibility 10.0 miles
Clouds Mostly Cloudy 2900 ft
Overcast 3500 ft
Windchill 36 °F
Dew Point 31 °F
Humidity 72%
Rainfall 0.00 in
Snow Depth Not available.
UV 0 out of 12
Pollen 2.30 out of 12
Air Quality Not available.
Flu Activity Not available.
METAR KPUJ 011235Z AUTO 33017G29KT 10SM BKN029 OVC035 03/00 A3002 RMK AO2

More Conditions Fewer Conditions

10-Day Weather Forecast

Almanac

Astronomy

Nov. 01, 2014 Rise Set
Actual Time
Civil Twilight
Nautical Twilight
Astronomical Twilight
Moon
Length of Visible Light
Length of Day
Tomorrow will be .
, % of the Moon is Illuminated

Today's Extremes

State Highs State Lows

Community

WunderPhotos

Upload Photos

1,766,915 photos uploaded!

WunderBlogs® & News

Nearby

Air Quality

  Air Quality AQ Index Pollutant
Not available.

Snow Depth

Station Depth Elevation

Earthquake Activity

City Distance Mag. Time & Date
Minimum magnitude displayed is 2.5.

Coastal Water Temperatures

Place Temperature

Nearby Weather Stations